Tiempo atmosférico en la estación meteorológica de La Seo d?Urgell, Lleida (690 m.)



Fecha
DESCASC
Temp. máxima en grados centígrados (hora)
DESCASC
Temp. mínima en grados centígrados (hora)
DESCASC
Temp. media en grados centígrados
DESCASC
Racha de viento máxima en m/sg (hora)
DESCASC
Velocidad máxima media en intervalos de 10 minutos(hora)
DESCASC
Precipitaciones diarias en mm
DESCASC
Precipitaciones de 00:00 a 06:00 en mm
DESCASC
Precipitaciones de 06:00 a 12:00 en mm
DESCASC
Precipitaciones de 12:00 a 18:00 en mm
DESCASC
Precipitaciones de 18:00 a 24:00 en mm
DESCASC

Gráficas

Temp. máximas Temp. mínimas Temp. medias Precipitaciones Rachas de viento máximas Velocidades máximas media en intervalos de 10 minutos

Datos horarios

Fecha y hora oficial Temperatura (ºC) Velocidad del viento (km/h) Dirección del viento Racha (km/h) Dirección de racha Precipitación (mm) Presión (hPa) Tendencia (hPa) Humedad (%)
2020-07-06 23:00:00 22.7 0 Calma 15 Nordeste 0 -- -- 40
2020-07-06 22:00:00 24.6 2 Nordeste 14 Sudoeste 0 -- -- 35
2020-07-06 21:00:00 26.9 6 Sudoeste 18 Sudoeste 0 -- -- 31
2020-07-06 20:00:00 28 6 Sudoeste 21 Sudoeste 0 -- -- 29
2020-07-06 19:00:00 28.9 10 Sudoeste 22 Sudoeste 0 -- -- 32
2020-07-06 18:00:00 29.9 8 Sudoeste 22 Sur 0 -- -- 35
2020-07-06 17:00:00 31.5 7 Sudoeste 24 Sur 0 -- -- 30
2020-07-06 16:00:00 32.4 5 Sudoeste 15 Sudoeste 0 -- -- 28
2020-07-06 15:00:00 32 5 Sudoeste 14 Sudoeste 0 -- -- 29
2020-07-06 14:00:00 30.1 2 Sudoeste 10 Sudoeste 0 -- -- 31
2020-07-06 13:00:00 28.1 2 Sudoeste 7 Oeste 0 -- -- 37
2020-07-06 12:00:00 26.1 2 Sudoeste 6 Sur 0 -- -- 36
2020-07-06 11:00:00 24.3 3 Sur 6 Sur 0 -- -- 39
2020-07-06 10:00:00 22.5 0 Calma 6 Sur 0 -- -- 43
2020-07-06 09:00:00 19.3 0 Calma 3 Sudeste 0 -- -- 61
2020-07-06 08:00:00 13.9 0 Calma 3 Nordeste 0 -- -- 93
2020-07-06 07:00:00 12 0 Calma 0 Calma 0 -- -- 93
2020-07-06 06:00:00 12.3 0 Calma 5 Nordeste 0 -- -- 92
2020-07-06 05:00:00 13 0 Calma 4 Nordeste 0 -- -- 92
2020-07-06 04:00:00 13.8 0 Calma 4 Norte 0 -- -- 91
2020-07-06 03:00:00 14.5 0 Calma 8 Nordeste 0 -- -- 89
2020-07-06 02:00:00 15.5 0 Calma 4 Sudeste 0 -- -- 87
2020-07-06 01:00:00 16.4 0 Calma 4 Noroeste 0 -- -- 84
2020-07-06 00:00:00 17.8 0 Calma 4 Noroeste 0 -- -- 79
2020-07-05 23:00:00 19.8 0 Calma 4 Norte 0 -- -- 71
2020-07-05 22:00:00 21.9 0 Calma 7 Sudoeste 0 -- -- 59
2020-07-05 21:00:00 25.8 0 Calma 7 Norte 0 -- -- 38
2020-07-05 20:00:00 27.3 2 Noroeste 7 Sudoeste 0 -- -- 36
2020-07-05 19:00:00 28.1 3 Oeste 10 Oeste 0 -- -- 34
2020-07-05 18:00:00 28.9 3 Oeste 14 Sudoeste 0 -- -- 32
2020-07-05 17:00:00 29.7 5 Oeste 18 Sudoeste 0 -- -- 31
2020-07-05 16:00:00 30.4 5 Oeste 19 Sudoeste 0 -- -- 31
2020-07-05 15:00:00 30.2 4 Sudoeste 14 Sudoeste 0 -- -- 31
2020-07-05 14:00:00 29.4 0 Calma 7 Noroeste 0 -- -- 34
2020-07-05 13:00:00 27.5 3 Sudoeste 8 Sudoeste 0 -- -- 35
2020-07-05 12:00:00 25.4 3 Sudoeste 6 Sur 0 -- -- 35
2020-07-05 11:00:00 24.3 0 Calma 5 Sur 0 -- -- 39
2020-07-05 10:00:00 21.5 2 Nordeste 5 Sur 0 -- -- 45
2020-07-05 09:00:00 18.3 0 Calma 5 Sudoeste 0 -- -- 62
2020-07-05 08:00:00 13.6 2 Sur 4 Sur 0 -- -- 93
2020-07-05 07:00:00 11.7 0 Calma 0 Calma 0 -- -- 94
2020-07-05 06:00:00 12.1 0 Calma 2 Nordeste 0 -- -- 94
2020-07-05 05:00:00 12.6 0 Calma 4 Norte 0 -- -- 93
2020-07-05 04:00:00 13.3 0 Calma 5 Norte 0 -- -- 92
2020-07-05 03:00:00 14 0 Calma 5 Noroeste 0 -- -- 91
2020-07-05 02:00:00 14.6 0 Calma 4 Norte 0 -- -- 89
2020-07-05 01:00:00 15.5 0 Calma 4 Norte 0 -- -- 87
2020-07-05 00:00:00 16.8 0 Calma 4 Norte 0 -- -- 83
2020-07-04 23:00:00 18.3 0 Calma 5 Nordeste 0 -- -- 75
2020-07-04 22:00:00 20.7 0 Calma 6 Noroeste 0 -- -- 58
2020-07-04 21:00:00 23.4 2 Noroeste 8 Noroeste 0 -- -- 43
2020-07-04 20:00:00 24.9 3 Noroeste 13 Noroeste 0 -- -- 41
2020-07-04 19:00:00 25.9 4 Noroeste 12 Oeste 0 -- -- 39
2020-07-04 18:00:00 26.6 5 Noroeste 14 Sudoeste 0 -- -- 37
2020-07-04 17:00:00 27.3 6 Oeste 18 Sudoeste 0 -- -- 37
2020-07-04 16:00:00 27.4 6 Sudoeste 17 Sudoeste 0 -- -- 37
2020-07-04 15:00:00 27.4 0 Calma 9 Sur 0 -- -- 36
2020-07-04 14:00:00 26.3 3 Sudoeste 10 Sudoeste 0 -- -- 36
2020-07-04 13:00:00 24.6 3 Sudoeste 8 Sur 0 -- -- 33
2020-07-04 12:00:00 23 0 Calma 8 Sudeste 0 -- -- 37
2020-07-04 11:00:00 21.1 2 Sur 8 Sudoeste 0 -- -- 39
2020-07-04 10:00:00 18.6 3 Sur 7 Sudoeste 0 -- -- 46
2020-07-04 09:00:00 16.1 0 Calma 6 Este 0 -- -- 57
2020-07-04 08:00:00 12 0 Calma 4 Nordeste 0 -- -- 90
2020-07-04 07:00:00 10 0 Calma 4 Oeste 0 -- -- 91
2020-07-04 06:00:00 10.5 0 Calma 4 Oeste 0 -- -- 88
2020-07-04 05:00:00 12 0 Calma 6 Norte 0 -- -- 81
2020-07-04 04:00:00 13.3 0 Calma 10 Este 0 -- -- 67
2020-07-04 03:00:00 15.2 3 Este 18 Nordeste 0 -- -- 58
2020-07-04 02:00:00 15.9 7 Este 19 Este 0 -- -- 56
2020-07-04 01:00:00 16.9 10 Nordeste 20 Nordeste 0 -- -- 54
2020-07-04 00:00:00 17.6 5 Este 19 Este 0 -- -- 57
2020-07-03 23:00:00 17.7 0 Calma 5 Noroeste 0 -- -- 67
2020-07-03 22:00:00 20 0 Calma 8 Oeste 0 -- -- 52
2020-07-03 21:00:00 22.3 0 Calma 15 Sudoeste 0 -- -- 43
2020-07-03 20:00:00 23.7 6 Sudoeste 26 Noroeste 0 -- -- 41
2020-07-03 19:00:00 24.1 4 Sudoeste 21 Sur 0 -- -- 41
2020-07-03 18:00:00 24.3 6 Sudoeste 22 Sudoeste 0 -- -- 40
2020-07-03 17:00:00 26 5 Sudoeste 20 Oeste 0 -- -- 39
2020-07-03 16:00:00 26.1 6 Sudoeste 24 Sudoeste 0 -- -- 40
2020-07-03 15:00:00 26.1 5 Sudoeste 21 Oeste 0 -- -- 39
2020-07-03 14:00:00 26 3 Sudoeste 17 Sudoeste 0 -- -- 40
2020-07-03 13:00:00 25.2 2 Sudoeste 7 Sudoeste 0 -- -- 42
2020-07-03 12:00:00 24 4 Nordeste 9 Este 0 -- -- 43
2020-07-03 11:00:00 22.8 2 Sur 8 Sudoeste 0 -- -- 47
2020-07-03 10:00:00 21.2 0 Calma 6 Sur 0 -- -- 53
2020-07-03 09:00:00 19.9 0 Calma 5 Norte 0 -- -- 70
2020-07-03 08:00:00 15.8 0 Calma 4 Norte 0 -- -- 93
2020-07-03 07:00:00 14.9 0 Calma 6 Este 0 -- -- 94
2020-07-03 06:00:00 15.1 0 Calma 5 Sur 0.2 -- -- 93
2020-07-03 05:00:00 15.5 0 Calma 4 Noroeste 0.4 -- -- 92
2020-07-03 04:00:00 16.5 0 Calma 7 Sur 1 -- -- 91
2020-07-03 03:00:00 16 0 Calma 7 Oeste 0 -- -- 91
2020-07-03 02:00:00 16.1 0 Calma 8 Noroeste 0 -- -- 89
2020-07-03 01:00:00 16.5 3 Este 17 Nordeste 0.4 -- -- 84
2020-07-03 00:00:00 17.4 4 Este 19 Este 1.2 -- -- 77
2020-07-02 23:00:00 18.6 5 Este 21 Nordeste 0.5 -- -- 70
2020-07-02 22:00:00 19.9 0 Calma 8 Norte 0 -- -- 78
2020-07-02 21:00:00 20.8 2 Sudeste 13 Sudoeste 0 -- -- 76
2020-07-02 20:00:00 21.7 0 Calma 10 Sudoeste 0 -- -- 62
2020-07-02 19:00:00 22.9 3 Sudoeste 9 Oeste 0 -- -- 59
2020-07-02 18:00:00 22.4 5 Nordeste 22 Oeste 0.1 -- -- 56
2020-07-02 17:00:00 20.2 10 Oeste 29 Oeste 1.1 -- -- 56
2020-07-02 16:00:00 28.2 7 Sudoeste 21 Sudoeste 0 -- -- 41
2020-07-02 15:00:00 28 5 Sudoeste 22 Sudoeste 0 -- -- 43
2020-07-02 14:00:00 26.9 3 Oeste 12 Sur 0 -- -- 46
2020-07-02 13:00:00 25.6 3 Oeste 8 Oeste 0 -- -- 53
2020-07-02 12:00:00 25.4 0 Calma 7 Sudoeste 0 -- -- 48
2020-07-02 11:00:00 23.2 0 Calma 8 Sudoeste 0 -- -- 60
2020-07-02 10:00:00 23.1 0 Calma 5 Sudoeste 0 -- -- 62
2020-07-02 09:00:00 19.4 3 Sudoeste 8 Oeste 0.1 -- -- 92
2020-07-02 08:00:00 17.6 0 Calma 14 Sudoeste 2 -- -- 93
2020-07-02 07:00:00 18.4 2 Oeste 10 Este 3.1 -- -- 93
2020-07-02 06:00:00 18.5 2 Oeste 15 Sudoeste 0.8 -- -- 90
2020-07-02 05:00:00 18.6 2 Nordeste 6 Nordeste 0.7 -- -- 85
2020-07-02 04:00:00 19.7 0 Calma 3 Sudoeste 0 -- -- 74
2020-07-02 03:00:00 20.2 0 Calma 9 Noroeste 0 -- -- 69
2020-07-02 02:00:00 20.8 0 Calma 16 Este 0 -- -- 64
2020-07-02 01:00:00 21.8 8 Nordeste 24 Este 0 -- -- 65
2020-07-02 00:00:00 23.3 11 Nordeste 23 Nordeste 0 -- -- 56
2020-07-01 23:00:00 23.8 9 Este 18 Este 0 -- -- 55
2020-07-01 22:00:00 23.6 0 Calma 0 Calma 0 -- -- 54
2020-07-01 21:00:00 26.3 0 Calma 4 Sudoeste 0 -- -- 42
2020-07-01 20:00:00 28.4 0 Calma 14 Sudoeste 0 -- -- 32
2020-07-01 19:00:00 29.7 6 Sudoeste 19 Sudoeste 0 -- -- 29
2020-07-01 18:00:00 30 5 Sudoeste 18 Sudoeste 0 -- -- 29
2020-07-01 17:00:00 31.1 8 Sudoeste 20 Oeste 0 -- -- 28
2020-07-01 16:00:00 31.8 5 Sudoeste 17 Sudoeste 0 -- -- 29
2020-07-01 15:00:00 31.1 3 Oeste 21 Sudoeste 0 -- -- 32
2020-07-01 14:00:00 30.1 8 Sudoeste 24 Sudoeste 0 -- -- 33
2020-07-01 13:00:00 28.8 6 Sudoeste 14 Sudoeste 0 -- -- 36
2020-07-01 12:00:00 28.1 0 Calma 9 Sur 0 -- -- 41
2020-07-01 11:00:00 27.4 0 Calma 5 Este 0 -- -- 45
2020-07-01 10:00:00 25.1 0 Calma 6 Este 0 -- -- 53
2020-07-01 09:00:00 22.3 0 Calma 4 Sudeste 0 -- -- 66
2020-07-01 08:00:00 18.8 0 Calma 3 Este 0 -- -- 90
2020-07-01 07:00:00 17.3 0 Calma 6 Noroeste 0 -- -- 91
2020-07-01 06:00:00 17.7 0 Calma 5 Nordeste 0 -- -- 91
2020-07-01 05:00:00 18.8 0 Calma 5 Nordeste 0 -- -- 90
2020-07-01 04:00:00 19.3 0 Calma 6 Nordeste 0 -- -- 90
2020-07-01 03:00:00 20.2 0 Calma 6 Nordeste 0 -- -- 88
2020-07-01 02:00:00 20.7 0 Calma 7 Este 0.1 -- -- 85
2020-07-01 01:00:00 21.5 3 Nordeste 13 Sudoeste 0.1 -- -- 81
2020-07-01 00:00:00 21.7 0 Calma 6 Sudoeste 0 -- -- 78
2020-06-30 23:00:00 23.5 0 Calma 9 Oeste 0 -- -- 67
2020-06-30 22:00:00 25.5 3 Noroeste 10 Sudoeste 0 -- -- 57
2020-06-30 21:00:00 27.2 0 Calma 10 Sudoeste 0 -- -- 48
2020-06-30 20:00:00 28.2 4 Oeste 15 Sudoeste 0 -- -- 43
2020-06-30 19:00:00 28.6 6 Oeste 15 Sudoeste 0 -- -- 42
2020-06-30 18:00:00 29 6 Oeste 18 Sudoeste 0 -- -- 41
2020-06-30 17:00:00 29.9 7 Oeste 19 Sudoeste 0 -- -- 40
2020-06-30 16:00:00 30.7 6 Oeste 18 Sudoeste 0 -- -- 40
2020-06-30 15:00:00 30.5 6 Oeste 18 Oeste 0 -- -- 40
2020-06-30 14:00:00 29.7 6 Sudoeste 18 Sudoeste 0 -- -- 43
2020-06-30 13:00:00 28.8 7 Sudoeste 19 Sudoeste 0 -- -- 47
2020-06-30 12:00:00 28 4 Sudoeste 11 Sudoeste 0 -- -- 52
2020-06-30 11:00:00 26.8 4 Sudoeste 8 Sudoeste 0 -- -- 56
2020-06-30 10:00:00 25.3 2 Sudoeste 7 Sur 0 -- -- 65
2020-06-30 09:00:00 23.1 2 Este 4 Nordeste 0 -- -- 76
2020-06-30 08:00:00 19.3 0 Calma 2 Nordeste 0 -- -- 92
2020-06-30 07:00:00 18.6 0 Calma 3 Sudoeste 0 -- -- 91
2020-06-30 06:00:00 19.2 0 Calma 4 Sudoeste 0 -- -- 90
2020-06-30 05:00:00 20.3 0 Calma 6 Oeste 0 -- -- 87
2020-06-30 04:00:00 21.2 0 Calma 6 Noroeste 0 -- -- 85
2020-06-30 03:00:00 21.1 0 Calma 6 Sudoeste 0 -- -- 85
2020-06-30 02:00:00 20.8 0 Calma 5 Sudoeste 0 -- -- 87
2020-06-30 01:00:00 20.3 0 Calma 5 Sudoeste 0 -- -- 87
2020-06-30 00:00:00 22 0 Calma 7 Noroeste 0 -- -- 77
2020-06-29 23:00:00 23.7 0 Calma 9 Nordeste 0 -- -- 66
2020-06-29 22:00:00 24.8 0 Calma 6 Noroeste 0 -- -- 53
2020-06-29 21:00:00 26.2 2 Noroeste -- -- -- -- -- 46
2020-06-29 20:00:00 27 3 Oeste 17 Sudoeste 0 -- -- 44
2020-06-29 19:00:00 27.8 5 Oeste 16 Sudoeste 0 -- -- 41
2020-06-29 18:00:00 28.7 5 Oeste 21 Sudoeste 0 -- -- 38
2020-06-29 17:00:00 29 7 Oeste 19 Sudoeste 0 -- -- 37
2020-06-29 16:00:00 30.7 7 Sudoeste 21 Sudoeste 0 -- -- 37
2020-06-29 15:00:00 30.1 7 Sudoeste 21 Sudoeste 0 -- -- 38
2020-06-29 14:00:00 29.3 8 Sudoeste 22 Sudoeste 0 -- -- 40
2020-06-29 13:00:00 28.4 6 Sudoeste 15 Sudoeste 0 -- -- 43
2020-06-29 12:00:00 27.1 2 Oeste 8 Sudoeste 0 -- -- 49
2020-06-29 11:00:00 25.9 0 Calma 6 Sudoeste 0 -- -- 54
2020-06-29 10:00:00 24.3 0 Calma 4 Sudoeste 0 -- -- 57
2020-06-29 09:00:00 21.1 0 Calma 4 Noroeste 0 -- -- 75
2020-06-29 08:00:00 17.5 0 Calma 4 Sudoeste 0 -- -- 91
2020-06-29 07:00:00 16.8 0 Calma 5 Noroeste 0 -- -- 91
2020-06-29 06:00:00 17.4 0 Calma 2 Norte 0 -- -- 91
2020-06-29 05:00:00 17.6 2 Este 5 Nordeste 0 -- -- 91
2020-06-29 04:00:00 17.2 0 Calma 5 Sudoeste 0 -- -- 91
2020-06-29 03:00:00 17.3 0 Calma 4 Nordeste 0 -- -- 90
2020-06-29 02:00:00 17.5 0 Calma 4 Nordeste 0 -- -- 90
2020-06-29 01:00:00 17.8 0 Calma 4 Oeste 0 -- -- 89
2020-06-29 00:00:00 19.4 0 Calma 4 Norte 0 -- -- 80
2020-06-28 23:00:00 20.8 0 Calma 5 Sur 0 -- -- 69
2020-06-28 22:00:00 22.7 0 Calma 6 Sudoeste 0 -- -- 60
2020-06-28 21:00:00 25 0 Calma 5 Sudoeste 0 -- -- 48
2020-06-28 20:00:00 26.6 0 Calma 7 Sudoeste 0 -- -- 41
2020-06-28 19:00:00 27.6 5 Sudoeste 15 Sudoeste 0 -- -- 37
2020-06-28 18:00:00 27.7 6 Sudoeste 18 Sudoeste 0 -- -- 38
2020-06-28 17:00:00 27.9 7 Sudoeste 19 Sudoeste 0 -- -- 37
2020-06-28 16:00:00 29.2 9 Sudoeste 25 Sudoeste 0 -- -- 36
2020-06-28 15:00:00 29.9 5 Sudoeste 16 Sudoeste 0 -- -- 35
2020-06-28 14:00:00 29 5 Sudoeste 17 Sudoeste 0 -- -- 37
2020-06-28 13:00:00 29.4 0 Calma 12 Nordeste 0 -- -- 41
2020-06-28 12:00:00 27.6 0 Calma 6 Este 0 -- -- 44
2020-06-28 11:00:00 25.7 0 Calma 6 Sudeste 0 -- -- 46
2020-06-28 10:00:00 23 0 Calma 4 Nordeste 0 -- -- 54
2020-06-28 09:00:00 20.4 0 Calma 4 Nordeste 0 -- -- 67
2020-06-28 08:00:00 16.6 0 Calma 5 Nordeste 0 -- -- 91
2020-06-28 07:00:00 15 0 Calma 3 Noroeste 0 -- -- 92
2020-06-28 06:00:00 15 0 Calma 4 Norte 0 -- -- 92
2020-06-28 05:00:00 14.8 0 Calma 3 Nordeste 0 -- -- 91
2020-06-28 04:00:00 15 0 Calma 3 Sur 0 -- -- 90
2020-06-28 03:00:00 15.6 0 Calma 4 Sudeste 0 -- -- 89
2020-06-28 02:00:00 16.4 0 Calma 5 Noroeste 0 -- -- 86
2020-06-28 01:00:00 17.1 0 Calma 6 Este 0 -- -- 81
2020-06-28 00:00:00 18.4 0 Calma 4 Noroeste 0 -- -- 76
2020-06-27 23:00:00 19.6 0 Calma 4 Nordeste 0 -- -- 69
2020-06-27 22:00:00 22.1 0 Calma 4 Sudoeste 0 -- -- 56
2020-06-27 21:00:00 24.9 0 Calma 12 Sudoeste 0 -- -- 40
2020-06-27 20:00:00 26.5 5 Sudoeste 13 Sudoeste 0 -- -- 34
2020-06-27 19:00:00 27.4 4 Sudoeste 19 Sudoeste 0 -- -- 31
2020-06-27 18:00:00 27.8 9 Sudoeste 19 Sudoeste 0 -- -- 30
2020-06-27 17:00:00 29 8 Sudoeste 19 Sudoeste 0 -- -- 29
2020-06-27 16:00:00 29.3 6 Oeste 22 Sudoeste 0 -- -- 30
2020-06-27 15:00:00 29.1 6 Sudoeste 16 Sudoeste 0 -- -- 31
2020-06-27 14:00:00 28.1 2 Oeste 12 Sudoeste 0 -- -- 32
2020-06-27 13:00:00 27.8 0 Calma 9 Nordeste 0 -- -- 35
2020-06-27 12:00:00 26 2 Sur 6 Sudeste 0 -- -- 40
2020-06-27 11:00:00 24.1 0 Calma 4 Oeste 0 -- -- 41
2020-06-27 10:00:00 20.9 0 Calma 4 Sur 0 -- -- 50
2020-06-27 09:00:00 18.5 0 Calma 4 Este 0 -- -- 62
2020-06-27 08:00:00 14.4 0 Calma 3 Nordeste 0 -- -- 92
2020-06-27 07:00:00 12.4 0 Calma 0 Calma 0 -- -- 92
2020-06-27 06:00:00 12.9 0 Calma 3 Norte 0 -- -- 91
2020-06-27 05:00:00 13.5 0 Calma 4 Sudoeste 0 -- -- 90
2020-06-27 04:00:00 14.4 0 Calma 3 Sur 0 -- -- 89
2020-06-27 03:00:00 15.4 2 Norte 4 Nordeste 0 -- -- 86
2020-06-27 02:00:00 16.7 0 Calma 3 Sudeste 0 -- -- 81
2020-06-27 01:00:00 17.4 0 Calma 5 Norte 0 -- -- 79
2020-06-27 00:00:00 17.9 0 Calma 4 Sur 0 -- -- 72
2020-06-26 23:00:00 19.4 0 Calma 10 Sudoeste 0 -- -- 59
2020-06-26 22:00:00 22 0 Calma 8 Oeste 0 -- -- 45
2020-06-26 21:00:00 24.2 7 Sudoeste 16 Sudoeste 0 -- -- 39
2020-06-26 20:00:00 24.7 0 Calma 10 Sudoeste 0 -- -- 43
2020-06-26 19:00:00 25.9 5 Sudoeste 18 Sudoeste 0 -- -- 36
2020-06-26 18:00:00 26.7 6 Sudoeste 18 Sudoeste 0 -- -- 35
2020-06-26 17:00:00 28.2 5 Oeste 20 Sudoeste 0 -- -- 31
2020-06-26 16:00:00 29 8 Sudoeste 22 Sudoeste 0 -- -- 31
2020-06-26 15:00:00 28.5 9 Sudoeste 21 Sudoeste 0 -- -- 31
2020-06-26 14:00:00 28.2 4 Oeste 13 Oeste 0 -- -- 37
2020-06-26 13:00:00 26.8 0 Calma 7 Sudeste 0 -- -- 43
2020-06-26 12:00:00 25 0 Calma 7 Sudeste 0 -- -- 46
2020-06-26 11:00:00 22.8 0 Calma 4 Sudeste 0 -- -- 58
2020-06-26 10:00:00 20.5 0 Calma 5 Nordeste 0 -- -- 71
2020-06-26 09:00:00 17.7 2 Sudoeste 6 Sur 0 -- -- 81
2020-06-26 08:00:00 15.9 0 Calma 5 Este 0 -- -- 94
2020-06-26 07:00:00 14.9 0 Calma 10 Sudoeste 0 -- -- 94
2020-06-26 06:00:00 14.8 0 Calma 6 Este 0 -- -- 94
2020-06-26 05:00:00 15.2 0 Calma 8 Oeste 0 -- -- 94
2020-06-26 04:00:00 15.2 0 Calma 4 Noroeste 0 -- -- 93
2020-06-26 03:00:00 15.6 0 Calma 3 Oeste 0 -- -- 93
2020-06-26 02:00:00 16.2 0 Calma 20 Oeste 0.1 -- -- 93
2020-06-26 01:00:00 16.6 0 Calma 12 Sur 1.1 -- -- 93
2020-06-26 00:00:00 17.3 3 Nordeste 11 Nordeste 1.3 -- -- 93
2020-06-25 23:00:00 17.5 0 Calma 9 Noroeste 0 -- -- 93
2020-06-25 22:00:00 17.7 0 Calma 12 Sudoeste 0.1 -- -- 92
2020-06-25 21:00:00 18.1 2 Nordeste 6 Nordeste 0.1 -- -- 91
2020-06-25 20:00:00 18.8 2 Este 7 Sudoeste 0.3 -- -- 89
2020-06-25 19:00:00 19.2 2 Noroeste 19 Norte 4.6 -- -- 83
2020-06-25 18:00:00 20.9 3 Noroeste 10 Noroeste 0 -- -- 68
2020-06-25 17:00:00 19.6 0 Calma 44 Norte 3.1 -- -- 73
2020-06-25 16:00:00 22.9 15 Norte 44 Norte 0 -- -- 40
2020-06-25 15:00:00 29.9 0 Calma 8 Sudoeste 0 -- -- 37
2020-06-25 14:00:00 28.3 0 Calma 6 Sudoeste 0 -- -- 41
2020-06-25 13:00:00 25.9 0 Calma 8 Este 0 -- -- 44
2020-06-25 12:00:00 23.2 0 Calma 7 Sudoeste 0 -- -- 47
2020-06-25 11:00:00 21.3 0 Calma 6 Sur 0 -- -- 56
2020-06-25 10:00:00 18.6 0 Calma 5 Sudoeste 0 -- -- 69
2020-06-25 09:00:00 16 2 Nordeste 6 Nordeste 0 -- -- 94
2020-06-25 08:00:00 13 0 Calma 5 Nordeste 0 -- -- 94
2020-06-25 07:00:00 12.7 0 Calma 3 Noroeste 0 -- -- 94
2020-06-25 06:00:00 13.2 0 Calma 5 Sur 0 -- -- 94
2020-06-25 05:00:00 13.5 0 Calma 2 Oeste 0 -- -- 94
2020-06-25 04:00:00 13.6 0 Calma 3 Oeste 0 -- -- 94
2020-06-25 03:00:00 14.2 0 Calma 2 Este 0 -- -- 94
2020-06-25 02:00:00 14.3 0 Calma 4 Sur 0 -- -- 94
2020-06-25 01:00:00 14.6 0 Calma 4 Noroeste 0 -- -- 94
2020-06-25 00:00:00 15 0 Calma 9 Sudoeste 0 -- -- 94
2020-06-24 23:00:00 15.1 0 Calma 6 Nordeste 0.4 -- -- 94
2020-06-24 22:00:00 15 0 Calma 8 Sudoeste 0.6 -- -- 94
2020-06-24 21:00:00 14.9 0 Calma 14 Este 1.4 -- -- 94
2020-06-24 20:00:00 14.5 6 Oeste 17 Sudoeste 4.7 -- -- 93
2020-06-24 19:00:00 14.4 0 Calma 39 Nordeste 61.1 -- -- 89
2020-06-24 18:00:00 20.2 16 Nordeste 42 Nordeste 0.5 -- -- 59
2020-06-24 17:00:00 29.8 12 Sudoeste 27 Sudoeste 0 -- -- 34
2020-06-24 16:00:00 31.1 8 Sudoeste 26 Sudoeste 0 -- -- 34
2020-06-24 15:00:00 30.7 9 Sudoeste 23 Sudoeste 0 -- -- 35
2020-06-24 14:00:00 30.3 4 Sudoeste 11 Sur 0 -- -- 37
2020-06-24 13:00:00 28.8 2 Oeste 8 Sur 0 -- -- 40
2020-06-24 12:00:00 27.4 4 Sudoeste 9 Sur 0 -- -- 43
2020-06-24 11:00:00 26.2 0 Calma 7 Sudoeste 0 -- -- 47
2020-06-24 10:00:00 23.2 0 Calma 6 Nordeste 0 -- -- 56
2020-06-24 09:00:00 20.9 0 Calma 5 Sudoeste 0 -- -- 68
2020-06-24 08:00:00 16.3 0 Calma 4 Sudoeste 0 -- -- 93
2020-06-24 07:00:00 14.2 0 Calma 3 Noroeste 0 -- -- 93
2020-06-24 06:00:00 14.7 0 Calma 4 Noroeste 0 -- -- 93
2020-06-24 05:00:00 15.3 0 Calma 3 Sudeste 0 -- -- 91
2020-06-24 04:00:00 15.9 0 Calma 3 Este 0 -- -- 91
2020-06-24 03:00:00 16.5 0 Calma 4 Noroeste 0 -- -- 90
2020-06-24 02:00:00 17.2 0 Calma 3 Noroeste 0 -- -- 88
2020-06-24 01:00:00 17.8 0 Calma 3 Noroeste 0 -- -- 87
2020-06-24 00:00:00 19.7 0 Calma 4 Sudoeste 0 -- -- 72
2020-06-23 23:00:00 22.1 0 Calma 7 Norte 0 -- -- 57
2020-06-23 22:00:00 24.2 0 Calma 11 Sudoeste 0 -- -- 47
2020-06-23 21:00:00 26 0 Calma 13 Sudoeste 0 -- -- 38
2020-06-23 20:00:00 27.7 4 Sudoeste 16 Sudoeste 0 -- -- 36
2020-06-23 19:00:00 28.6 6 Sudoeste 19 Sudoeste 0 -- -- 34
2020-06-23 18:00:00 29 6 Oeste 22 Sudoeste 0 -- -- 34
2020-06-23 17:00:00 29.8 6 Oeste 21 Sudoeste 0 -- -- 31
2020-06-23 16:00:00 30.2 6 Sudoeste 18 Oeste 0 -- -- 32
2020-06-23 15:00:00 29.7 6 Sudoeste 19 Sudoeste 0 -- -- 34
2020-06-23 14:00:00 28.7 3 Oeste 13 Sudoeste 0 -- -- 37
2020-06-23 13:00:00 27.5 2 Oeste 10 Sudoeste 0 -- -- 43
2020-06-23 12:00:00 26.2 3 Sudoeste 8 Sudoeste 0 -- -- 45
2020-06-23 11:00:00 25 0 Calma 6 Sur 0 -- -- 45
2020-06-23 10:00:00 23.1 0 Calma 8 Este 0 -- -- 52
2020-06-23 09:00:00 20.1 0 Calma 4 Sur 0 -- -- 60
2020-06-23 08:00:00 17.1 2 Sudeste 5 Sudeste 0 -- -- 81
2020-06-23 07:00:00 14.5 0 Calma 4 Sur 0 -- -- 91
2020-06-23 06:00:00 14.1 0 Calma 3 Sudoeste 0 -- -- 91
2020-06-23 05:00:00 13.7 0 Calma 3 Nordeste 0 -- -- 91
2020-06-23 04:00:00 14.3 0 Calma 3 Sur 0 -- -- 89
2020-06-23 03:00:00 15.2 0 Calma 3 Sudoeste 0 -- -- 87
2020-06-23 02:00:00 16.1 2 Oeste 4 Oeste 0 -- -- 84
2020-06-23 01:00:00 16.7 0 Calma 5 Noroeste 0 -- -- 82
2020-06-23 00:00:00 17.9 0 Calma 4 Sudoeste 0 -- -- 77
2020-06-22 23:00:00 19.7 0 Calma 6 Sudoeste 0 -- -- 66
2020-06-22 22:00:00 23 0 Calma 11 Norte 0 -- -- 48
2020-06-22 21:00:00 24.9 2 Noroeste 11 Oeste 0 -- -- 44
2020-06-22 20:00:00 26.4 3 Sudoeste 14 Sudoeste 0 -- -- 41
2020-06-22 19:00:00 27.4 4 Sudoeste 18 Sudoeste 0 -- -- 37
2020-06-22 18:00:00 28 6 Sudoeste 19 Sudoeste 0 -- -- 35
2020-06-22 17:00:00 29.3 5 Oeste 21 Sudoeste 0 -- -- 33
2020-06-22 16:00:00 29.4 8 Sudoeste 21 Sudoeste 0 -- -- 32
2020-06-22 15:00:00 28.8 6 Oeste 16 Sudoeste 0 -- -- 31
2020-06-22 14:00:00 29.1 3 Sur 7 Sudoeste 0 -- -- 29
2020-06-22 13:00:00 28 0 Calma 8 Sudeste 0 -- -- 33
2020-06-22 12:00:00 26.5 0 Calma 10 Sudoeste 0 -- -- 35
2020-06-22 11:00:00 23.5 4 Sudoeste 10 Sudoeste 0 -- -- 42
2020-06-22 10:00:00 20.5 5 Sudoeste 10 Sudoeste 0 -- -- 50
2020-06-22 09:00:00 18.3 2 Sudoeste 5 Nordeste 0 -- -- 57
2020-06-22 08:00:00 14.1 0 Calma 6 Sudoeste 0 -- -- 81
2020-06-22 07:00:00 11.4 0 Calma 5 Este 0 -- -- 86
2020-06-22 06:00:00 12 0 Calma 4 Noroeste 0 -- -- 84
2020-06-22 05:00:00 12.7 0 Calma 5 Sudeste 0 -- -- 80
2020-06-22 04:00:00 13.8 0 Calma 4 Este 0 -- -- 75
2020-06-22 03:00:00 14.9 0 Calma 7 Norte 0 -- -- 68
2020-06-22 02:00:00 16 0 Calma 6 Norte 0 -- -- 63
2020-06-22 01:00:00 17.1 0 Calma 7 Sudeste 0 -- -- 58
2020-06-22 00:00:00 19.5 2 Sudoeste 9 Noroeste 0 -- -- 45
2020-06-21 23:00:00 22.1 3 Norte 19 Este 0 -- -- 35
2020-06-21 22:00:00 23.8 4 Noroeste 21 Nordeste 0 -- -- 31
2020-06-21 21:00:00 25.2 3 Noroeste 22 Norte 0 -- -- 29
2020-06-21 20:00:00 26.5 3 Norte 19 Nordeste 0 -- -- 28
2020-06-21 19:00:00 28.5 5 Sudoeste 17 Sur 0 -- -- 26
2020-06-21 18:00:00 28.1 6 Sudoeste 13 Sudoeste 0 -- -- 28
2020-06-21 17:00:00 29.6 4 Sudoeste 16 Sudoeste 0 -- -- 27
2020-06-21 16:00:00 29.8 6 Sudoeste 16 Sudoeste 0 -- -- 27
2020-06-21 15:00:00 29.3 5 Sudoeste 21 Oeste 0 -- -- 28
2020-06-21 14:00:00 28.1 4 Oeste 12 Sudoeste 0 -- -- 31
2020-06-21 13:00:00 26.7 0 Calma 12 Sudoeste 0 -- -- 41
2020-06-21 12:00:00 24.5 3 Sudoeste 8 Sudoeste 0 -- -- 42
2020-06-21 11:00:00 22 0 Calma 7 Sur 0 -- -- 47
2020-06-21 10:00:00 19.6 2 Sudoeste 6 Sudoeste 0 -- -- 56
2020-06-21 09:00:00 16.5 3 Sudoeste 5 Sudoeste 0 -- -- 79
2020-06-21 08:00:00 12.9 0 Calma 5 Nordeste 0 -- -- 93
2020-06-21 07:00:00 11.3 0 Calma 4 Noroeste 0 -- -- 93
2020-06-21 06:00:00 11.9 0 Calma 5 Sudoeste 0 -- -- 93
2020-06-21 05:00:00 12.5 0 Calma 4 Sur 0 -- -- 91
2020-06-21 04:00:00 13.4 0 Calma 5 Sudeste 0 -- -- 89
2020-06-21 03:00:00 14.3 0 Calma 5 Norte 0 -- -- 86
2020-06-21 02:00:00 16 2 Sudoeste 6 Sudoeste 0 -- -- 79
2020-06-21 01:00:00 17.7 0 Calma 12 Nordeste 0 -- -- 68
2020-06-21 00:00:00 19.6 6 Nordeste 21 Nordeste 0 -- -- 57
2020-06-20 23:00:00 20.1 9 Este 23 Este 0 -- -- 54
2020-06-20 22:00:00 20.6 10 Este 25 Este 0 -- -- 51
2020-06-20 21:00:00 22.3 12 Este 27 Nordeste 0 -- -- 44
2020-06-20 20:00:00 24.3 3 Sudoeste 21 Sudoeste 0 -- -- 40
2020-06-20 19:00:00 25.1 4 Sudoeste 23 Sudoeste 0 -- -- 39
2020-06-20 18:00:00 25.2 8 Sudoeste 23 Sudoeste 0 -- -- 39
2020-06-20 17:00:00 27 4 Sudoeste 26 Sur 0 -- -- 38
2020-06-20 16:00:00 26.7 5 Sudoeste 20 Sudoeste 0 -- -- 36
2020-06-20 15:00:00 26 6 Sudoeste 17 Sudoeste 0 -- -- 38
2020-06-20 14:00:00 25.9 4 Sudoeste 17 Sudoeste 0 -- -- 39
2020-06-20 13:00:00 26.4 3 Sudoeste 10 Sudoeste 0 -- -- 41
2020-06-20 12:00:00 25.4 2 Sudeste 8 Este 0 -- -- 40
2020-06-20 11:00:00 23.6 3 Este 4 Nordeste 0 -- -- 47
2020-06-20 10:00:00 21.7 0 Calma 5 Sudoeste 0 -- -- 52
2020-06-20 09:00:00 18.9 0 Calma 5 Sudoeste 0 -- -- 67
2020-06-20 08:00:00 15.5 0 Calma 2 Sudoeste 0 -- -- 92
2020-06-20 07:00:00 14.1 0 Calma 4 Nordeste 0 -- -- 92
2020-06-20 06:00:00 14 0 Calma 3 Sudoeste 0 -- -- 91
2020-06-20 05:00:00 14.6 0 Calma 4 Sudoeste 0 -- -- 91
2020-06-20 04:00:00 14.7 0 Calma 3 Noroeste 0 -- -- 91
2020-06-20 03:00:00 14.9 0 Calma 3 Nordeste 0 -- -- 91
2020-06-20 02:00:00 14.3 0 Calma 5 Nordeste 0 -- -- 91
2020-06-20 01:00:00 14.3 0 Calma 4 Este 0 -- -- 90
2020-06-20 00:00:00 16.1 0 Calma 4 Sudoeste 0 -- -- 81
2020-06-19 23:00:00 17.6 0 Calma 6 Nordeste 0 -- -- 73
2020-06-19 22:00:00 19.3 0 Calma 4 Nordeste 0 -- -- 62
2020-06-19 21:00:00 20.6 0 Calma 6 Este 0 -- -- 57
2020-06-19 20:00:00 21.2 0 Calma 7 Sudoeste 0 -- -- 52
2020-06-19 19:00:00 22.2 3 Sudoeste 17 Sur 0 -- -- 45
2020-06-19 18:00:00 22.8 6 Oeste 19 Sudoeste 0 -- -- 42
2020-06-19 17:00:00 24.3 5 Oeste 17 Sudoeste 0 -- -- 38
2020-06-19 16:00:00 23.9 6 Sudoeste 19 Sudoeste 0 -- -- 41
2020-06-19 15:00:00 23.1 4 Sudoeste 10 Oeste 0 -- -- 47
2020-06-19 14:00:00 21.8 4 Sudoeste 10 Sudoeste 0 -- -- 53
2020-06-19 13:00:00 20.5 2 Sur 8 Sudoeste 0 -- -- 57
2020-06-19 12:00:00 18.9 3 Nordeste 9 Norte 0 -- -- 75
2020-06-19 11:00:00 15.5 0 Calma 5 Este 0 -- -- 87
2020-06-19 10:00:00 13.4 0 Calma 4 Noroeste 0.7 -- -- 93
2020-06-19 09:00:00 12.7 0 Calma 4 Oeste 7.3 -- -- 92
2020-06-19 08:00:00 13 0 Calma 3 Noroeste 0 -- -- 90
2020-06-19 07:00:00 12.3 0 Calma 4 Noroeste 0 -- -- 90
2020-06-19 06:00:00 11.8 0 Calma 5 Sudoeste 0 -- -- 90
2020-06-19 05:00:00 12 0 Calma -- -- 0 -- -- 87
2020-06-19 04:00:00 12.7 0 Calma -- -- 0 -- -- 78
2020-06-19 03:00:00 14 0 Calma 6 Sudeste 0 -- -- 69
2020-06-19 02:00:00 15.2 0 Calma 10 Este 0 -- -- 63
2020-06-19 01:00:00 15.4 6 Nordeste 15 Nordeste 0 -- -- 60
2020-06-19 00:00:00 15.9 6 Nordeste 17 Este 0 -- -- 61
2020-06-18 23:00:00 15.5 0 Calma 4 Noroeste 0 -- -- 70
2020-06-18 22:00:00 17.8 0 Calma 6 Noroeste 0 -- -- 55
2020-06-18 21:00:00 19.1 3 Noroeste 10 Oeste 0 -- -- 48
2020-06-18 20:00:00 20.2 4 Sudoeste 18 Oeste 0 -- -- 39
2020-06-18 19:00:00 21.1 8 Sudoeste 22 Sudoeste 0 -- -- 36
2020-06-18 18:00:00 21.3 9 Sudoeste 28 Sudoeste 0 -- -- 37
2020-06-18 17:00:00 22.5 7 Oeste 23 Sudoeste 0 -- -- 35
2020-06-18 16:00:00 22.7 10 Sudoeste 24 Sudoeste 0 -- -- 37
2020-06-18 15:00:00 21.9 5 Sudoeste 19 Sur 0 -- -- 38
2020-06-18 14:00:00 20.5 0 Calma -- -- -- -- -- 45
2020-06-18 13:00:00 19.8 2 Oeste 9 Sudoeste 0 -- -- 44
2020-06-18 12:00:00 20.3 0 Calma 9 Sudoeste 0 -- -- 44
2020-06-18 11:00:00 18 2 Sudoeste 8 Sudoeste 0 -- -- 54
2020-06-18 10:00:00 14.5 2 Sudoeste 6 Este 0 -- -- 83
2020-06-18 09:00:00 11.8 0 Calma 4 Oeste 0 -- -- 90
2020-06-18 08:00:00 11.4 4 Sudoeste 8 Sudoeste 0 -- -- 91
2020-06-18 07:00:00 10.7 0 Calma 4 Nordeste 0 -- -- 91
2020-06-18 06:00:00 10.5 0 Calma 6 Sudoeste 0 -- -- 90
2020-06-18 05:00:00 10.6 0 Calma 4 Noroeste 0 -- -- 90
2020-06-18 04:00:00 10.2 0 Calma 4 Norte 0 -- -- 89
2020-06-18 03:00:00 10.5 0 Calma 6 Nordeste 0 -- -- 88
2020-06-18 02:00:00 10.8 0 Calma 4 Sur 0 -- -- 85
2020-06-18 01:00:00 11.5 0 Calma 5 Sudoeste 0 -- -- 81
2020-06-18 00:00:00 12.9 2 Sudoeste 5 Sudoeste 0 -- -- 72
2020-06-17 23:00:00 14.6 0 Calma 4 Nordeste 0 -- -- 58
2020-06-17 22:00:00 17 0 Calma 6 Sur 0 -- -- 42
2020-06-17 21:00:00 18.9 2 Sudoeste 16 Sudoeste 0 -- -- 36
2020-06-17 20:00:00 19.5 4 Sudoeste 17 Sudoeste 0 -- -- 34
2020-06-17 19:00:00 20.9 6 Sudoeste 19 Sudoeste 0 -- -- 32
2020-06-17 18:00:00 21.1 6 Sudoeste 18 Sudoeste 0 -- -- 32
2020-06-17 17:00:00 21.7 7 Sudoeste 22 Sudoeste 0 -- -- 31
2020-06-17 16:00:00 22.8 10 Sudoeste 27 Oeste 0 -- -- 29
2020-06-17 15:00:00 20.3 8 Sudoeste 21 Sur 0 -- -- 33
2020-06-17 14:00:00 21.1 5 Sudoeste 23 Sudoeste 0 -- -- 37
2020-06-17 13:00:00 21.1 5 Sudoeste 14 Sudoeste 0 -- -- 43
2020-06-17 12:00:00 20 0 Calma 7 Este 0 -- -- 53
2020-06-17 11:00:00 15.5 0 Calma 5 Oeste 0 -- -- 60
2020-06-17 10:00:00 14.3 0 Calma 5 Este 0 -- -- 69
2020-06-17 09:00:00 11.4 0 Calma 8 Sur 0 -- -- 94
2020-06-17 08:00:00 9.6 0 Calma 4 Este 0 -- -- 95
2020-06-17 07:00:00 8.9 0 Calma 5 Sudoeste 0 -- -- 95
2020-06-17 06:00:00 9.3 2 Nordeste 4 Nordeste 0 -- -- 95
2020-06-17 05:00:00 9.3 0 Calma 4 Nordeste 0 -- -- 95
2020-06-17 04:00:00 9.7 0 Calma 4 Norte 0 -- -- 95
2020-06-17 03:00:00 9.7 0 Calma 4 Nordeste 0 -- -- 95
2020-06-17 02:00:00 10.1 0 Calma 5 Sudoeste 0 -- -- 94
2020-06-17 01:00:00 10 0 Calma 5 Nordeste 0 -- -- 94
2020-06-17 00:00:00 10.6 0 Calma 4 Nordeste 0 -- -- 94
2020-06-16 23:00:00 11.4 0 Calma 4 Norte 0 -- -- 92
2020-06-16 22:00:00 12.8 0 Calma 5 Nordeste 0 -- -- 91
2020-06-16 21:00:00 14.1 3 Sudoeste 9 Sudoeste 0 -- -- 85
2020-06-16 20:00:00 14.9 0 Calma 15 Este 0 -- -- 75
2020-06-16 19:00:00 16.2 4 Norte 21 Norte 0 -- -- 64
2020-06-16 18:00:00 16.3 9 Norte 24 Norte 0 -- -- 63
2020-06-16 17:00:00 19 0 Calma 13 Sudoeste 0 -- -- 60
2020-06-16 16:00:00 17.2 0 Calma 9 Nordeste 0 -- -- 65
2020-06-16 15:00:00 17.7 2 Oeste 8 Sudoeste 0 -- -- 70
2020-06-16 14:00:00 16.5 3 Oeste 10 Sudoeste 0 -- -- 78
2020-06-16 13:00:00 16.5 3 Sudoeste 9 Sudoeste 0 -- -- 78
2020-06-16 12:00:00 18 0 Calma 12 Sudoeste 0 -- -- 69
2020-06-16 11:00:00 16.5 0 Calma 4 Nordeste 0 -- -- 75
2020-06-16 10:00:00 14.6 0 Calma 4 Sur 0 -- -- 88
2020-06-16 09:00:00 14.3 0 Calma 3 Sur 0 -- -- 90
2020-06-16 08:00:00 13.2 0 Calma 6 Sudoeste 0 -- -- 90
2020-06-16 07:00:00 13.5 0 Calma 4 Sur 0 -- -- 85
2020-06-16 06:00:00 13.6 2 Sudoeste 5 Sudoeste 0 -- -- 82
2020-06-16 05:00:00 14 0 Calma 6 Sudoeste 0 -- -- 78
2020-06-16 04:00:00 14.4 0 Calma 6 Sudeste 0 -- -- 71
2020-06-16 03:00:00 15.1 0 Calma 15 Este 0 -- -- 66
2020-06-16 02:00:00 15.3 6 Nordeste 17 Nordeste 0 -- -- 64
2020-06-16 01:00:00 15.3 8 Nordeste 20 Este 0 -- -- 66
2020-06-16 00:00:00 16.4 6 Este 18 Nordeste 0 -- -- 57
2020-06-15 23:00:00 17.2 3 Nordeste 14 Este 0 -- -- 52
2020-06-15 22:00:00 18.5 2 Nordeste 10 Sudoeste 0 -- -- 42
2020-06-15 21:00:00 21.5 3 Sudoeste 14 Oeste 0 -- -- 35
2020-06-15 20:00:00 22.7 8 Sudoeste 24 Sudoeste 0 -- -- 32
2020-06-15 19:00:00 23.5 10 Sudoeste 24 Sudoeste 0 -- -- 32
2020-06-15 18:00:00 23.6 10 Sudoeste 26 Sudoeste 0 -- -- 31
2020-06-15 17:00:00 23.7 11 Sudoeste 26 Sudoeste 0 -- -- 32
2020-06-15 16:00:00 23.5 9 Sudoeste 22 Sudoeste 0 -- -- 32
2020-06-15 15:00:00 25 7 Sudoeste 23 Oeste 0 -- -- 32
2020-06-15 14:00:00 22.1 6 Sudoeste 23 Sudoeste 0 -- -- 35
2020-06-15 13:00:00 22 4 Sudoeste 19 Sudoeste 0 -- -- 35
2020-06-15 12:00:00 22.3 4 Oeste 10 Sudoeste 0 -- -- 37
2020-06-15 11:00:00 21.8 3 Sur 6 Sudoeste 0 -- -- 46
2020-06-15 10:00:00 17.5 2 Sudoeste 5 Sudoeste 0 -- -- 63
2020-06-15 09:00:00 14.6 0 Calma 5 Sudoeste 0 -- -- 72
2020-06-15 08:00:00 12.7 0 Calma 4 Sur 0 -- -- 90
2020-06-15 07:00:00 11.1 0 Calma 4 Noroeste 0 -- -- 92
2020-06-15 06:00:00 10.9 0 Calma 2 Noroeste 0 -- -- 91
2020-06-15 05:00:00 11.7 2 Nordeste 5 Nordeste 0 -- -- 90
2020-06-15 04:00:00 12.7 0 Calma 5 Sudoeste 0 -- -- 87
2020-06-15 03:00:00 14 0 Calma 3 Noroeste 0 -- -- 84
2020-06-15 02:00:00 14.4 0 Calma 4 Norte 0 -- -- 82
2020-06-15 01:00:00 14.8 0 Calma 2 Noroeste 0 -- -- 78
2020-06-15 00:00:00 15.6 0 Calma 4 Nordeste 0 -- -- 73
2020-06-14 23:00:00 16.2 0 Calma 3 Sudoeste 0 -- -- 67
2020-06-14 22:00:00 17.2 0 Calma 5 Oeste 0 -- -- 57
2020-06-14 21:00:00 18.5 0 Calma 6 Sudoeste 0 -- -- 51
2020-06-14 20:00:00 20 0 Calma 4 Oeste 0 -- -- 47
2020-06-14 19:00:00 20.4 0 Calma 8 Sudeste 0 -- -- 41
2020-06-14 18:00:00 20.9 0 Calma 7 Sudeste 0 -- -- 39
2020-06-14 17:00:00 20.3 0 Calma 7 Sudoeste 0 -- -- 38
2020-06-14 16:00:00 20.6 5 Sudoeste 15 Sudoeste 0 -- -- 37
2020-06-14 15:00:00 21 8 Sudoeste 18 Sudoeste 0 -- -- 35
2020-06-14 14:00:00 21.6 2 Oeste 22 Sur 0 -- -- 37
2020-06-14 13:00:00 21.1 0 Calma 10 Sur 0 -- -- 41
2020-06-14 12:00:00 20.6 0 Calma 8 Sudoeste 0 -- -- 41
2020-06-14 11:00:00 20.2 2 Este 7 Nordeste 0 -- -- 42
2020-06-14 10:00:00 16.7 2 Sudoeste 8 Sudoeste 0 -- -- 54
2020-06-14 09:00:00 12.4 2 Sudoeste 6 Sudoeste 0 -- -- 75
2020-06-14 08:00:00 10.8 0 Calma 5 Nordeste 0 -- -- 92
2020-06-14 07:00:00 8.2 0 Calma 4 Norte 0 -- -- 92
2020-06-14 06:00:00 8.4 2 Nordeste 4 Nordeste 0 -- -- 91
2020-06-14 05:00:00 9.4 0 Calma 4 Este 0 -- -- 89
2020-06-14 04:00:00 10.2 0 Calma 4 Noroeste 0 -- -- 85
2020-06-14 03:00:00 11.1 0 Calma 8 Sudoeste 0 -- -- 80
2020-06-14 02:00:00 12.3 0 Calma 10 Nordeste 0 -- -- 69
2020-06-14 01:00:00 14.3 5 Nordeste 12 Nordeste 0 -- -- 56
2020-06-14 00:00:00 15 4 Nordeste 17 Este 0 -- -- 53
2020-06-13 23:00:00 15.6 5 Nordeste 13 Nordeste 0 -- -- 49
2020-06-13 22:00:00 16.9 7 Nordeste 23 Norte 0 -- -- 43
2020-06-13 21:00:00 19.1 5 Sudoeste 14 Sur 0 -- -- 36
2020-06-13 20:00:00 19.9 4 Sudoeste 16 Sudoeste 0 -- -- 34
2020-06-13 19:00:00 20.3 5 Sudoeste 22 Sudoeste 0 -- -- 34
2020-06-13 18:00:00 21.2 6 Sudoeste 20 Sur 0 -- -- 33
2020-06-13 17:00:00 22.7 6 Sudoeste 20 Sudoeste 0 -- -- 32
2020-06-13 16:00:00 22.4 6 Sudoeste 22 Sudoeste 0 -- -- 32
2020-06-13 15:00:00 21.5 5 Sudoeste 18 Oeste 0 -- -- 33
2020-06-13 14:00:00 21.1 5 Oeste 17 Sudoeste 0 -- -- 33
2020-06-13 13:00:00 21.3 4 Sudoeste 17 Sudoeste 0 -- -- 35
2020-06-13 12:00:00 21 3 Sudoeste 10 Sur 0 -- -- 40
2020-06-13 11:00:00 18.8 0 Calma 9 Este 0 -- -- 50
2020-06-13 10:00:00 15.9 0 Calma 7 Sudoeste 0 -- -- 61
2020-06-13 09:00:00 14 2 Norte 9 Norte 0 -- -- 75
2020-06-13 08:00:00 11 0 Calma 3 Sudeste 0 -- -- 93
2020-06-13 07:00:00 9.4 0 Calma 5 Este 0 -- -- 94
2020-06-13 06:00:00 9.1 0 Calma 8 Sudoeste 0 -- -- 93
2020-06-13 05:00:00 9.2 0 Calma 4 Nordeste 0 -- -- 93
2020-06-13 04:00:00 9.2 0 Calma 7 Sudoeste 0 -- -- 91
2020-06-13 03:00:00 8.7 0 Calma 5 Noroeste 0 -- -- 91
2020-06-13 02:00:00 8.6 2 Norte 5 Noroeste 0 -- -- 90
2020-06-13 01:00:00 8.8 0 Calma 6 Norte 0 -- -- 88
2020-06-13 00:00:00 10.1 0 Calma 6 Nordeste 0 -- -- 81
2020-06-12 23:00:00 11.4 0 Calma 4 Sudoeste 0 -- -- 71
2020-06-12 22:00:00 13.9 0 Calma 7 Sudoeste 0 -- -- 54
2020-06-12 21:00:00 17.2 2 Oeste 13 Oeste 0 -- -- 39
2020-06-12 20:00:00 18.4 3 Sudoeste 14 Sudoeste 0 -- -- 35
2020-06-12 19:00:00 18.9 5 Sudoeste 23 Sudoeste 0 -- -- 35
2020-06-12 18:00:00 19.1 7 Sudoeste 19 Sudoeste 0 -- -- 34
2020-06-12 17:00:00 20.5 6 Sudoeste 21 Sur 0 -- -- 32
2020-06-12 16:00:00 19.9 8 Sudoeste 23 Sudoeste 0 -- -- 33
2020-06-12 15:00:00 20.1 6 Sudoeste 23 Sudoeste 0 -- -- 33
2020-06-12 14:00:00 20 6 Sudoeste 20 Sudoeste 0 -- -- 35
2020-06-12 13:00:00 20.4 5 Sudoeste 20 Sudoeste 0 -- -- 38
2020-06-12 12:00:00 20.2 2 Sur 13 Sudoeste 0 -- -- 44
2020-06-12 11:00:00 17.2 0 Calma 7 Sudoeste 0 -- -- 62
2020-06-12 10:00:00 17 0 Calma 8 Sudoeste 0 -- -- 68
2020-06-12 09:00:00 14.5 0 Calma 4 Sur 0 -- -- 93
2020-06-12 08:00:00 11.1 0 Calma 4 Sudoeste 0 -- -- 95
2020-06-12 07:00:00 10.4 0 Calma 7 Sudoeste 0 -- -- 95
2020-06-12 06:00:00 10.6 0 Calma 4 Este 0 -- -- 95
2020-06-12 05:00:00 10.8 0 Calma 7 Sudoeste 0 -- -- 95
2020-06-12 04:00:00 10.8 2 Nordeste 13 Oeste 0 -- -- 95
2020-06-12 03:00:00 12.7 4 Oeste 10 Oeste 0 -- -- 95
2020-06-12 02:00:00 12.7 0 Calma 6 Este 0 -- -- 95
2020-06-12 01:00:00 12.7 0 Calma 9 Oeste 0 -- -- 95
2020-06-12 00:00:00 12.8 0 Calma 6 Este 0 -- -- 94
2020-06-11 23:00:00 12.7 3 Sudoeste 6 Sudoeste 0 -- -- 95
2020-06-11 22:00:00 12.7 0 Calma 3 Nordeste 0 -- -- 94
2020-06-11 21:00:00 12.9 0 Calma 4 Nordeste 0 -- -- 93
2020-06-11 20:00:00 13.2 0 Calma 4 Este 0 -- -- 92
2020-06-11 19:00:00 13.7 0 Calma 4 Nordeste 0 -- -- 89
2020-06-11 18:00:00 14.5 0 Calma 4 Nordeste 0 -- -- 86
2020-06-11 17:00:00 13.6 0 Calma 5 Sudoeste 0 -- -- 85
2020-06-11 16:00:00 14.9 2 Sudoeste 6 Sur 0 -- -- 68
2020-06-11 15:00:00 15.5 2 Sudoeste 6 Sudoeste 0 -- -- 63
2020-06-11 14:00:00 14.6 0 Calma 5 Sur 0 -- -- 73
2020-06-11 13:00:00 15 0 Calma 5 Sudoeste 0 -- -- 74
2020-06-11 12:00:00 12.7 0 Calma 8 Sudoeste 0 -- -- 93
2020-06-11 11:00:00 11.7 0 Calma 7 Sudoeste 0 -- -- 94
2020-06-11 10:00:00 12.1 0 Calma -- -- 0 -- -- 94
2020-06-11 09:00:00 11.5 0 Calma 2 Sudoeste 0 -- -- 94
2020-06-11 08:00:00 11.2 0 Calma 5 Sudoeste 0 -- -- 94
2020-06-11 07:00:00 10.8 0 Calma 4 Nordeste 0 -- -- 94
2020-06-11 06:00:00 10.7 0 Calma 4 Este 0 -- -- 94
2020-06-11 05:00:00 10.6 0 Calma 3 Noroeste 0 -- -- 94
2020-06-11 04:00:00 10.7 0 Calma 3 Noroeste 0 -- -- 94
2020-06-11 03:00:00 11.2 0 Calma 4 Oeste 0 -- -- 94
2020-06-11 02:00:00 11.8 0 Calma 4 Oeste 0 -- -- 94
2020-06-11 01:00:00 12.3 0 Calma 7 Sudoeste 0 -- -- 92
2020-06-11 00:00:00 12.9 0 Calma 5 Noroeste 0 -- -- 88
2020-06-10 23:00:00 13.4 0 Calma 7 Nordeste 0 -- -- 82
2020-06-10 22:00:00 14.4 4 Nordeste 9 Norte 0 -- -- 72
2020-06-10 21:00:00 16.8 2 Nordeste 7 Noroeste 0 -- -- 51
2020-06-10 20:00:00 18.1 2 Sudoeste 14 Sudoeste 0 -- -- 43
2020-06-10 19:00:00 19.1 4 Sudoeste 23 Oeste 0 -- -- 41
2020-06-10 18:00:00 19.5 6 Sudoeste 21 Oeste 0 -- -- 39
2020-06-10 17:00:00 20.1 6 Sudoeste 20 Sudoeste 0 -- -- 37
2020-06-10 16:00:00 20.3 5 Oeste 18 Sudoeste 0 -- -- 33
2020-06-10 15:00:00 21.1 7 Sudoeste 17 Sudoeste 0 -- -- 30
2020-06-10 14:00:00 21.6 2 Sudoeste 13 Oeste 0 -- -- 30
2020-06-10 13:00:00 20.9 4 Sudoeste 14 Sudoeste 0 -- -- 31
2020-06-10 12:00:00 20.7 3 Sudoeste 11 Sudoeste 0 -- -- 31
2020-06-10 11:00:00 18.8 2 Sudoeste 7 Sur 0 -- -- 38
2020-06-10 10:00:00 16.3 0 Calma 6 Sudoeste 0 -- -- 49
2020-06-10 09:00:00 13 3 Sudoeste 6 Sur 0 -- -- 64
2020-06-10 08:00:00 8.7 0 Calma 5 Noroeste 0 -- -- 92
2020-06-10 07:00:00 6.2 0 Calma 2 Sur 0 -- -- 92
2020-06-10 06:00:00 6.5 2 Norte 4 Noroeste 0 -- -- 91
2020-06-10 05:00:00 7.5 0 Calma 3 Sudoeste 0 -- -- 88
2020-06-10 04:00:00 8.2 0 Calma 6 Sudoeste 0 -- -- 84
2020-06-10 03:00:00 9.3 0 Calma 8 Noroeste 0 -- -- 82
2020-06-10 02:00:00 9.7 0 Calma 6 Nordeste 0 -- -- 80
2020-06-10 01:00:00 10.5 4 Nordeste 8 Nordeste 0 -- -- 79
2020-06-10 00:00:00 11 0 Calma 6 Nordeste 0 -- -- 78
2020-06-09 23:00:00 12.2 0 Calma 9 Nordeste 0 -- -- 72
2020-06-09 22:00:00 13.3 0 Calma 6 Noroeste 0 -- -- 66
2020-06-09 21:00:00 15.7 0 Calma 8 Nordeste 0 -- -- 51
2020-06-09 20:00:00 17.1 0 Calma 20 Sudoeste 0 -- -- 42
2020-06-09 19:00:00 18 11 Sudoeste 23 Sudoeste 0 -- -- 41
2020-06-09 18:00:00 18.7 5 Oeste 19 Sudoeste 0 -- -- 38
2020-06-09 17:00:00 19.4 5 Sudoeste 19 Oeste 0 -- -- 37
2020-06-09 16:00:00 20.1 6 Sudoeste 16 Sudoeste 0 -- -- 35
2020-06-09 15:00:00 19.3 3 Sur 12 Norte 0 -- -- 30
2020-06-09 14:00:00 20.7 2 Sudoeste 9 Sudoeste 0 -- -- 32
2020-06-09 13:00:00 20.4 2 Oeste 9 Sudoeste 0 -- -- 34
2020-06-09 12:00:00 18.4 3 Oeste 9 Sudoeste 0 -- -- 37
2020-06-09 11:00:00 14.7 0 Calma 7 Sudoeste 0 -- -- 52
2020-06-09 10:00:00 13.8 3 Sudoeste 7 Sur 0 -- -- 55
2020-06-09 09:00:00 10.7 0 Calma 5 Sudoeste 0 -- -- 78
2020-06-09 08:00:00 8 0 Calma 5 Noroeste 0 -- -- 92
2020-06-09 07:00:00 6.5 0 Calma 4 Norte 0 -- -- 91
2020-06-09 06:00:00 6.5 2 Oeste 4 Nordeste 0 -- -- 91
2020-06-09 05:00:00 7.2 0 Calma 6 Nordeste 0 -- -- 88
2020-06-09 04:00:00 8.1 0 Calma 5 Sudoeste 0 -- -- 85
2020-06-09 03:00:00 8.5 0 Calma 5 Norte 0 -- -- 83
2020-06-09 02:00:00 8.9 2 Norte 7 Noroeste 0 -- -- 82
2020-06-09 01:00:00 9.6 2 Nordeste 7 Este 0 -- -- 80
2020-06-09 00:00:00 12 3 Nordeste 9 Norte 0 -- -- 57
2020-06-08 23:00:00 14.1 0 Calma 11 Sudoeste 0 -- -- 46
2020-06-08 22:00:00 15.6 2 Norte 14 Oeste 0 -- -- 39
2020-06-08 21:00:00 16.1 2 Noroeste 10 Norte 0 -- -- 38
2020-06-08 20:00:00 17.5 4 Norte 17 Noroeste 0 -- -- 38
2020-06-08 19:00:00 18.4 6 Sudoeste 15 Sudoeste 0 -- -- 42
2020-06-08 18:00:00 18.2 6 Sudoeste 20 Sudoeste 0 -- -- 43
2020-06-08 17:00:00 18.4 7 Oeste 20 Sudoeste 0 -- -- 42
2020-06-08 16:00:00 18.5 8 Sudoeste 23 Sudoeste 0 -- -- 37
2020-06-08 15:00:00 20 6 Sudoeste 21 Sudoeste 0 -- -- 38
2020-06-08 14:00:00 20.7 6 Sudoeste 21 Sudoeste 0 -- -- 33
2020-06-08 13:00:00 20.9 2 Sur 10 Sudeste 0 -- -- 34
2020-06-08 12:00:00 19.4 2 Norte 12 Nordeste 0 -- -- 37
2020-06-08 11:00:00 18 5 Nordeste 15 Este 0 -- -- 44
2020-06-08 10:00:00 16.1 0 Calma 8 Sudoeste 0 -- -- 56
2020-06-08 09:00:00 13.8 0 Calma 5 Sudeste 0 -- -- 80
2020-06-08 08:00:00 9.8 0 Calma 6 Este 0 -- -- 95
2020-06-08 07:00:00 8.1 0 Calma 3 Noroeste 0 -- -- 95
2020-06-08 06:00:00 8.5 0 Calma 3 Nordeste 0 -- -- 95
2020-06-08 05:00:00 9.3 0 Calma 5 Este 0 -- -- 95
2020-06-08 04:00:00 9.6 0 Calma 5 Sudoeste 0 -- -- 95
2020-06-08 03:00:00 9.7 0 Calma 3 Sudoeste 0 -- -- 95
2020-06-08 02:00:00 9.9 0 Calma 3 Oeste 0 -- -- 94
2020-06-08 01:00:00 10.2 0 Calma 6 Sudoeste 0 -- -- 94
2020-06-08 00:00:00 10.4 3 Sudoeste 7 Oeste 0 -- -- 93
2020-06-07 23:00:00 10.7 0 Calma 8 Norte 0 -- -- 92
2020-06-07 22:00:00 10.6 5 Sudoeste 12 Sudoeste 0 -- -- 93
2020-06-07 21:00:00 11.6 0 Calma 5 Nordeste 0 -- -- 92
2020-06-07 20:00:00 11.9 0 Calma 17 Este 0 -- -- 88
2020-06-07 19:00:00 12.4 7 Nordeste 19 Este 0 -- -- 81
2020-06-07 18:00:00 14.1 8 Este 23 Nordeste 0 -- -- 78
2020-06-07 17:00:00 13.4 2 Norte 10 Este 0 -- -- 90
2020-06-07 16:00:00 13.6 0 Calma 21 Noroeste 0 -- -- 85
2020-06-07 15:00:00 15.5 5 Oeste 14 Oeste 0 -- -- 76
2020-06-07 14:00:00 19.1 6 Sudoeste 17 Sudoeste 0 -- -- 62
2020-06-07 13:00:00 19 0 Calma 6 Sur 0 -- -- 62
2020-06-07 12:00:00 16.3 2 Sudoeste 10 Sudoeste 0 -- -- 70
2020-06-07 11:00:00 17.1 0 Calma 6 Sur 0 -- -- 66
2020-06-07 10:00:00 18.1 0 Calma 8 Oeste 0 -- -- 62
2020-06-07 09:00:00 14.3 0 Calma 5 Este 0 -- -- 83
2020-06-07 08:00:00 12.6 0 Calma 6 Sudoeste 0 -- -- 94
2020-06-07 07:00:00 11.1 2 Sudoeste 6 Sudoeste 0 -- -- 94
2020-06-07 06:00:00 11.1 0 Calma 3 Noroeste 0 -- -- 94
2020-06-07 05:00:00 11.6 0 Calma 5 Sudoeste 0 -- -- 94
2020-06-07 04:00:00 12.2 0 Calma 7 Sudoeste 0 -- -- 93
2020-06-07 03:00:00 12.1 0 Calma 10 Sudoeste 0 -- -- 92
2020-06-07 02:00:00 12.4 0 Calma 15 Sudoeste 0 -- -- 89
2020-06-07 01:00:00 12.9 5 Sudoeste 35 Norte 0 -- -- 79
2020-06-07 00:00:00 13.9 11 Norte 37 Norte 0 -- -- 73